KBVY/BVY METAR and TAF weather

Enter ICAO airport designator
Station Type Date Time Source
KBVY METAR 2023/01/30 10:53 UTC NOAA

KBVY 301053Z AUTO 00000KT 10SM CLR 02/M02 A3012 RMK AO2 SLP196 T00171017


Station Type Date Time Source
KBVY Decoded METAR 2023/01/30 10:53 UTC NOAA

BEVERLY MUNICIPAL AIRPORT, MA, United States (KBVY) 42-35N 070-55W 28M
Jan 30, 2023 - 05:53 AM EST / 2023.01.30 1053 UTC
Wind: Calm:0
Visibility: 10 mile(s):0
Sky conditions: clear
Temperature: 35.1 F (1.7 C)
Dew Point: 28.9 F (-1.7 C)
Relative Humidity: 78%
Pressure (altimeter): 30.12 in. Hg (1019 hPa)
ob: KBVY 301053Z AUTO 00000KT 10SM CLR 02/M02 A3012 RMK AO2 SLP196 T00171017
cycle: 11

Station Type Date Time Source
KBVY TAF UTC NOAA

Error!

Example: see airport list